Time;durP1;ratioP1;P1;durP2;ratioP2;P2;SDS_P1;SDS_P2;PMS_P1;PMS_P2;Temp;Humidity;BMP_temperature;BMP_pressure;BME280_temperature;BME280_humidity;BME280_pressure;Samples;Min_cycle;Max_cycle;Signal;HPM_P1;HPM_P2
2023/04/20 00:01:51;;;;;;;15.88;10.02;;;;;;;;;;5036445;28;20037;-62
2023/04/20 00:04:17;;;;;;;16.52;9.95;;;;;;;;;;5035994;28;20096;-63
2023/04/20 00:06:44;;;;;;;18.80;10.80;;;;;;;;;;5035963;28;20052;-62
2023/04/20 00:09:11;;;;;;;16.58;10.50;;;;;;;;;;5036139;28;20021;-63
2023/04/20 00:11:37;;;;;;;15.98;10.52;;;;;;;;;;5036384;28;20444;-64
2023/04/20 00:14:04;;;;;;;20.10;10.50;;;;;;;;;;5018308;28;20029;-61
2023/04/20 00:16:30;;;;;;;15.57;10.50;;;;;;;;;;5018807;28;20022;-59
2023/04/20 00:18:56;;;;;;;17.40;10.57;;;;;;;;;;5036828;28;20033;-63
2023/04/20 00:21:23;;;;;;;17.65;10.52;;;;;;;;;;5037039;28;20083;-64
2023/04/20 00:23:49;;;;;;;18.48;10.90;;;;;;;;;;5019040;28;20080;-60
2023/04/20 00:26:15;;;;;;;16.83;10.95;;;;;;;;;;5036726;28;20020;-62
2023/04/20 00:28:42;;;;;;;16.73;10.27;;;;;;;;;;5036947;28;20080;-60
2023/04/20 00:31:08;;;;;;;16.17;10.07;;;;;;;;;;5019155;28;20408;-62
2023/04/20 00:33:34;;;;;;;16.52;10.20;;;;;;;;;;5036700;28;20109;-59
2023/04/20 00:36:00;;;;;;;16.17;10.25;;;;;;;;;;5037023;28;20083;-63
2023/04/20 00:38:26;;;;;;;19.42;10.60;;;;;;;;;;5015326;28;20029;-64
2023/04/20 00:40:53;;;;;;;19.52;10.60;;;;;;;;;;5033290;28;20108;-61
2023/04/20 00:43:19;;;;;;;17.90;10.50;;;;;;;;;;5033244;28;20444;-60
2023/04/20 00:45:45;;;;;;;16.70;10.30;;;;;;;;;;5033585;28;20017;-61
2023/04/20 00:48:12;;;;;;;15.93;10.40;;;;;;;;;;5033135;28;20091;-62
2023/04/20 00:50:38;;;;;;;17.77;11.20;;;;;;;;;;5033261;28;20033;-63
2023/04/20 00:53:05;;;;;;;18.17;11.27;;;;;;;;;;5033214;28;20032;-64
2023/04/20 00:55:31;;;;;;;17.70;10.80;;;;;;;;;;5033019;28;20032;-62
2023/04/20 00:57:57;;;;;;;17.58;11.25;;;;;;;;;;5033263;28;20029;-64
2023/04/20 01:00:24;;;;;;;17.95;10.50;;;;;;;;;;4996411;28;1100104;-63
2023/04/20 01:02:50;;;;;;;18.13;10.70;;;;;;;;;;5034288;28;20021;-64
2023/04/20 01:05:16;;;;;;;16.80;10.70;;;;;;;;;;5033926;28;20029;-62
2023/04/20 01:07:42;;;;;;;19.45;10.77;;;;;;;;;;5016412;28;20069;-61
2023/04/20 01:10:09;;;;;;;17.88;11.15;;;;;;;;;;5016218;28;20046;-62
2023/04/20 01:12:35;;;;;;;16.27;10.43;;;;;;;;;;5033801;28;20029;-64
2023/04/20 01:15:02;;;;;;;17.58;11.15;;;;;;;;;;5015822;28;20116;-61
2023/04/20 01:17:28;;;;;;;17.42;10.75;;;;;;;;;;5016160;28;20091;-65
2023/04/20 01:19:54;;;;;;;16.92;10.27;;;;;;;;;;5033870;28;20037;-64
2023/04/20 01:22:20;;;;;;;20.85;10.85;;;;;;;;;;5033776;28;20097;-60
2023/04/20 01:24:46;;;;;;;17.90;10.50;;;;;;;;;;5033379;28;20072;-62
2023/04/20 01:27:15;;;;;;;18.15;10.40;;;;;;;;;;5033625;28;20056;-64
2023/04/20 01:29:41;;;;;;;20.38;10.43;;;;;;;;;;5033467;28;20393;-65
2023/04/20 01:32:07;;;;;;;17.25;10.52;;;;;;;;;;5015503;28;20052;-66
2023/04/20 01:34:33;;;;;;;23.38;10.93;;;;;;;;;;5033266;28;20466;-63
2023/04/20 01:36:59;;;;;;;20.42;11.60;;;;;;;;;;5016053;28;20402;-65
2023/04/20 01:39:25;;;;;;;17.05;11.00;;;;;;;;;;5033140;28;20026;-62
2023/04/20 01:41:51;;;;;;;18.73;10.88;;;;;;;;;;5015861;28;20029;-64
2023/04/20 01:44:17;;;;;;;18.45;11.10;;;;;;;;;;5033245;28;20138;-63
2023/04/20 01:46:43;;;;;;;16.83;10.68;;;;;;;;;;5015430;28;20030;-62
2023/04/20 01:49:09;;;;;;;17.55;10.98;;;;;;;;;;5033071;28;20045;-63
2023/04/20 01:51:35;;;;;;;16.60;10.93;;;;;;;;;;5031675;28;20601;-61
2023/04/20 01:54:01;;;;;;;18.02;10.60;;;;;;;;;;5027741;28;20083;-62
2023/04/20 01:56:27;;;;;;;17.67;10.98;;;;;;;;;;5032921;28;20025;-61
2023/04/20 01:58:54;;;;;;;19.17;10.88;;;;;;;;;;5032931;28;20029;-60
2023/04/20 02:01:20;;;;;;;16.42;11.18;;;;;;;;;;5032974;28;20560;-62
2023/04/20 02:03:47;;;;;;;18.25;11.15;;;;;;;;;;5031652;28;20482;-61
2023/04/20 02:06:14;;;;;;;17.42;10.52;;;;;;;;;;5033058;28;20025;-64
2023/04/20 02:08:40;;;;;;;16.60;10.20;;;;;;;;;;5031678;28;20477;-62
2023/04/20 02:11:06;;;;;;;18.25;11.32;;;;;;;;;;5031670;28;20037;-62
2023/04/20 02:13:32;;;;;;;17.30;10.88;;;;;;;;;;5032600;28;20033;-62
2023/04/20 02:15:58;;;;;;;17.52;10.98;;;;;;;;;;5032855;28;20033;-63
2023/04/20 02:18:24;;;;;;;20.25;11.38;;;;;;;;;;5032751;28;20072;-63
2023/04/20 02:20:50;;;;;;;17.58;10.68;;;;;;;;;;5031460;28;20048;-62
2023/04/20 02:23:16;;;;;;;18.13;11.30;;;;;;;;;;5032466;28;20026;-62
2023/04/20 02:25:42;;;;;;;17.38;10.90;;;;;;;;;;5032481;28;20025;-60
2023/04/20 02:28:08;;;;;;;19.05;10.20;;;;;;;;;;5032449;28;20029;-63
2023/04/20 02:30:34;;;;;;;16.17;10.15;;;;;;;;;;5031219;28;20025;-65
2023/04/20 02:33:00;;;;;;;17.63;10.55;;;;;;;;;;5032307;28;20025;-62
2023/04/20 02:35:26;;;;;;;18.05;10.82;;;;;;;;;;5032465;28;20040;-62
2023/04/20 02:37:52;;;;;;;17.27;10.90;;;;;;;;;;5031036;28;20056;-61
2023/04/20 02:40:18;;;;;;;16.50;10.55;;;;;;;;;;5030682;28;20139;-63
2023/04/20 02:42:44;;;;;;;17.48;10.77;;;;;;;;;;5032312;28;20029;-63
2023/04/20 02:45:10;;;;;;;20.38;11.57;;;;;;;;;;5030627;28;20036;-63
2023/04/20 02:47:36;;;;;;;15.35;10.27;;;;;;;;;;5032172;28;20028;-62
2023/04/20 02:50:03;;;;;;;16.90;11.13;;;;;;;;;;5032095;28;20021;-63
2023/04/20 02:52:29;;;;;;;18.27;10.75;;;;;;;;;;5030508;28;20478;-62
2023/04/20 02:54:55;;;;;;;17.67;10.80;;;;;;;;;;5031533;28;20470;-61
2023/04/20 02:57:21;;;;;;;17.58;11.27;;;;;;;;;;5031741;28;20040;-62
2023/04/20 02:59:47;;;;;;;18.75;10.90;;;;;;;;;;5031669;28;20029;-61
2023/04/20 03:02:13;;;;;;;20.42;10.93;;;;;;;;;;5031319;28;20462;-60
2023/04/20 03:04:39;;;;;;;17.45;10.65;;;;;;;;;;5031674;28;20026;-64
2023/04/20 03:07:06;;;;;;;17.13;10.85;;;;;;;;;;5031884;28;20462;-63
2023/04/20 03:09:32;;;;;;;18.02;10.70;;;;;;;;;;5014015;28;20024;-61
2023/04/20 03:11:58;;;;;;;16.52;9.75;;;;;;;;;;5014139;28;20421;-61
2023/04/20 03:14:24;;;;;;;18.85;11.18;;;;;;;;;;5031452;28;20018;-61
2023/04/20 03:16:51;;;;;;;17.48;10.95;;;;;;;;;;5031788;28;20029;-61
2023/04/20 03:19:17;;;;;;;17.35;10.45;;;;;;;;;;5031480;28;20022;-63
2023/04/20 03:21:44;;;;;;;18.25;11.15;;;;;;;;;;5030097;28;20509;-62
2023/04/20 03:24:10;;;;;;;16.38;10.60;;;;;;;;;;5021767;28;20017;-63
2023/04/20 03:26:36;;;;;;;16.52;10.40;;;;;;;;;;5031683;28;20049;-62
2023/04/20 03:29:02;;;;;;;17.73;10.75;;;;;;;;;;5013777;28;20053;-62
2023/04/20 03:31:28;;;;;;;16.85;10.18;;;;;;;;;;5021834;28;20104;-62
2023/04/20 03:33:54;;;;;;;16.23;10.15;;;;;;;;;;5029162;28;20121;-61
2023/04/20 03:36:20;;;;;;;17.98;10.63;;;;;;;;;;5031223;28;20140;-63
2023/04/20 03:38:46;;;;;;;16.73;10.70;;;;;;;;;;5021581;28;20064;-59
2023/04/20 03:41:14;;;;;;;17.27;10.93;;;;;;;;;;5031443;28;20026;-63
2023/04/20 03:43:40;;;;;;;17.15;10.75;;;;;;;;;;5030070;28;20025;-61
2023/04/20 03:46:06;;;;;;;18.30;10.70;;;;;;;;;;5031407;28;20556;-60
2023/04/20 03:48:33;;;;;;;16.73;10.45;;;;;;;;;;5031320;28;20072;-62
2023/04/20 03:50:59;;;;;;;17.75;10.10;;;;;;;;;;5030037;28;20477;-61
2023/04/20 03:53:25;;;;;;;19.70;10.88;;;;;;;;;;5029859;28;20029;-63
2023/04/20 03:55:51;;;;;;;17.60;10.30;;;;;;;;;;5026314;28;20089;-60
2023/04/20 03:58:17;;;;;;;19.15;10.82;;;;;;;;;;5030921;28;20033;-60
2023/04/20 04:00:43;;;;;;;16.63;10.00;;;;;;;;;;5031070;28;20033;-64
2023/04/20 04:03:09;;;;;;;16.30;10.20;;;;;;;;;;5030999;28;20025;-63
2023/04/20 04:05:35;;;;;;;18.83;11.55;;;;;;;;;;5031195;28;20032;-65
2023/04/20 04:08:01;;;;;;;19.75;11.23;;;;;;;;;;5029968;28;20048;-62
2023/04/20 04:10:27;;;;;;;19.60;10.73;;;;;;;;;;5031117;28;20024;-57
2023/04/20 04:12:53;;;;;;;17.40;10.90;;;;;;;;;;5032101;28;20040;-63
2023/04/20 04:15:19;;;;;;;18.52;11.20;;;;;;;;;;5034742;28;20108;-62
2023/04/20 04:17:45;;;;;;;18.77;11.45;;;;;;;;;;5034804;28;20409;-60
2023/04/20 04:20:11;;;;;;;17.67;11.25;;;;;;;;;;5034686;28;20025;-61
2023/04/20 04:22:37;;;;;;;17.77;11.25;;;;;;;;;;5034729;28;20053;-62
2023/04/20 04:25:04;;;;;;;18.23;11.35;;;;;;;;;;5034485;28;20084;-58
2023/04/20 04:27:33;;;;;;;19.13;12.50;;;;;;;;;;5034790;28;20026;-68
2023/04/20 04:30:00;;;;;;;21.90;11.50;;;;;;;;;;5034491;28;20021;-62
2023/04/20 04:32:26;;;;;;;21.13;11.40;;;;;;;;;;5034148;28;20467;-59
2023/04/20 04:34:52;;;;;;;18.08;11.40;;;;;;;;;;5034224;28;20044;-62
2023/04/20 04:37:18;;;;;;;17.40;11.60;;;;;;;;;;5034420;28;20241;-62
2023/04/20 04:39:45;;;;;;;18.08;11.65;;;;;;;;;;5032845;28;20091;-64
2023/04/20 04:42:11;;;;;;;18.92;11.30;;;;;;;;;;5034231;28;20161;-64
2023/04/20 04:44:38;;;;;;;19.48;12.10;;;;;;;;;;5034159;28;20021;-62
2023/04/20 04:47:05;;;;;;;21.90;11.23;;;;;;;;;;5034244;28;20478;-63
2023/04/20 04:49:31;;;;;;;18.38;11.60;;;;;;;;;;5034167;28;20083;-62
2023/04/20 04:51:57;;;;;;;18.23;11.85;;;;;;;;;;5034175;28;20029;-58
2023/04/20 04:54:23;;;;;;;20.20;11.15;;;;;;;;;;5033709;28;20029;-63
2023/04/20 04:56:50;;;;;;;18.92;11.23;;;;;;;;;;5034013;28;20021;-64
2023/04/20 04:59:16;;;;;;;19.02;10.93;;;;;;;;;;5032415;28;20029;-60
2023/04/20 05:01:42;;;;;;;20.30;12.05;;;;;;;;;;5033673;28;20021;-59
2023/04/20 05:04:08;;;;;;;17.70;11.05;;;;;;;;;;5033609;28;20532;-64
2023/04/20 05:06:34;;;;;;;18.42;10.52;;;;;;;;;;5033966;28;20017;-59
2023/04/20 05:09:00;;;;;;;19.95;12.18;;;;;;;;;;5034153;28;20018;-60
2023/04/20 05:11:26;;;;;;;18.27;11.40;;;;;;;;;;5032574;28;20033;-62
2023/04/20 05:13:53;;;;;;;18.13;11.90;;;;;;;;;;5023482;28;20025;-62
2023/04/20 05:16:19;;;;;;;18.75;11.20;;;;;;;;;;5033639;28;20567;-64
2023/04/20 05:18:45;;;;;;;18.58;11.40;;;;;;;;;;5015318;28;20029;-62
2023/04/20 05:21:11;;;;;;;17.90;11.60;;;;;;;;;;5032977;28;20025;-64
2023/04/20 05:23:37;;;;;;;22.23;11.15;;;;;;;;;;5014309;28;20112;-61
2023/04/20 05:26:04;;;;;;;18.85;11.82;;;;;;;;;;5033649;28;20401;-63
2023/04/20 05:28:30;;;;;;;23.38;11.65;;;;;;;;;;5033345;28;20032;-61
2023/04/20 05:30:56;;;;;;;17.92;11.15;;;;;;;;;;5015179;28;20033;-61
2023/04/20 05:33:22;;;;;;;17.92;11.05;;;;;;;;;;5032981;28;20156;-63
2023/04/20 05:35:48;;;;;;;19.23;10.48;;;;;;;;;;5032778;28;20032;-60
2023/04/20 05:38:13;;;;;;;16.67;10.98;;;;;;;;;;5033111;28;20025;-60
2023/04/20 05:40:39;;;;;;;18.08;10.70;;;;;;;;;;5032873;28;20052;-63
2023/04/20 05:43:05;;;;;;;16.20;10.60;;;;;;;;;;5032596;28;20096;-55
2023/04/20 05:45:33;;;;;;;18.70;11.05;;;;;;;;;;5032586;28;20032;-56
2023/04/20 05:47:59;;;;;;;24.75;11.60;;;;;;;;;;5032874;28;20076;-59
2023/04/20 05:50:26;;;;;;;16.55;11.05;;;;;;;;;;5032335;28;20124;-61
2023/04/20 05:52:52;;;;;;;17.02;10.73;;;;;;;;;;5032562;28;20032;-63
2023/04/20 05:55:19;;;;;;;17.48;10.93;;;;;;;;;;5032667;28;20034;-63
2023/04/20 05:57:45;;;;;;;19.25;12.40;;;;;;;;;;5032743;28;20037;-60
2023/04/20 06:00:12;;;;;;;18.08;10.50;;;;;;;;;;5033782;28;20385;-56
2023/04/20 06:02:38;;;;;;;17.00;10.68;;;;;;;;;;5032305;28;20026;-60
2023/04/20 06:05:04;;;;;;;17.35;11.10;;;;;;;;;;5014235;28;20347;-56
2023/04/20 06:07:30;;;;;;;18.92;10.48;;;;;;;;;;5032503;28;20357;-59
2023/04/20 06:09:56;;;;;;;17.17;10.93;;;;;;;;;;5014733;28;20127;-61
2023/04/20 06:12:23;;;;;;;17.70;11.60;;;;;;;;;;5033665;28;20025;-57
2023/04/20 06:14:49;;;;;;;19.98;11.40;;;;;;;;;;5032398;28;20065;-59
2023/04/20 06:17:15;;;;;;;17.30;12.10;;;;;;;;;;5032445;28;20071;-56
2023/04/20 06:19:41;;;;;;;17.83;11.25;;;;;;;;;;5031831;28;20466;-58
2023/04/20 06:22:07;;;;;;;16.70;10.93;;;;;;;;;;5032628;28;20502;-63
2023/04/20 06:24:34;;;;;;;17.45;10.88;;;;;;;;;;5031632;28;20075;-55
2023/04/20 06:27:00;;;;;;;18.05;11.05;;;;;;;;;;5031720;28;20021;-60
2023/04/20 06:29:26;;;;;;;17.60;11.75;;;;;;;;;;5031940;28;20221;-58
2023/04/20 06:31:52;;;;;;;18.08;11.35;;;;;;;;;;5031898;28;20025;-59
2023/04/20 06:34:18;;;;;;;18.65;11.90;;;;;;;;;;5014494;28;20029;-60
2023/04/20 06:36:44;;;;;;;17.65;11.15;;;;;;;;;;5031060;28;20091;-58
2023/04/20 06:39:10;;;;;;;18.73;11.52;;;;;;;;;;5031936;28;20026;-55
2023/04/20 06:41:39;;;;;;;18.48;11.30;;;;;;;;;;5032069;28;20396;-61
2023/04/20 06:44:05;;;;;;;19.00;12.75;;;;;;;;;;5031599;28;20140;-64
2023/04/20 06:46:32;;;;;;;17.90;11.90;;;;;;;;;;5032154;28;20028;-62
2023/04/20 06:48:58;;;;;;;18.35;10.90;;;;;;;;;;5031372;28;20390;-62
2023/04/20 06:51:25;;;;;;;19.50;11.52;;;;;;;;;;5032740;28;20080;-59
2023/04/20 06:53:51;;;;;;;17.48;11.30;;;;;;;;;;5031527;28;20064;-59
2023/04/20 06:56:17;;;;;;;19.23;11.20;;;;;;;;;;5031753;28;20025;-51
2023/04/20 06:58:43;;;;;;;17.38;11.25;;;;;;;;;;5014882;28;20120;-61
2023/04/20 07:01:09;;;;;;;19.92;12.00;;;;;;;;;;5031155;28;20037;-61
2023/04/20 07:03:36;;;;;;;21.05;11.88;;;;;;;;;;5031307;28;20361;-61
2023/04/20 07:06:02;;;;;;;20.20;12.20;;;;;;;;;;5031833;28;20386;-62
2023/04/20 07:08:28;;;;;;;18.35;11.25;;;;;;;;;;5031427;28;20025;-57
2023/04/20 07:10:55;;;;;;;18.67;11.10;;;;;;;;;;5031555;28;20034;-63
2023/04/20 07:13:21;;;;;;;19.77;11.18;;;;;;;;;;5031435;28;20087;-65
2023/04/20 07:15:47;;;;;;;22.20;13.43;;;;;;;;;;5031943;28;20117;-62
2023/04/20 07:18:13;;;;;;;17.88;11.30;;;;;;;;;;5031732;28;20450;-60
2023/04/20 07:20:39;;;;;;;18.15;10.98;;;;;;;;;;5014053;28;20521;-60
2023/04/20 07:23:05;;;;;;;17.90;11.57;;;;;;;;;;5013681;28;20063;-65
2023/04/20 07:25:31;;;;;;;20.02;12.00;;;;;;;;;;5031809;28;20025;-63
2023/04/20 07:27:57;;;;;;;20.38;12.00;;;;;;;;;;5014327;28;20044;-65
2023/04/20 07:30:24;;;;;;;18.60;12.05;;;;;;;;;;5014162;28;20048;-61
2023/04/20 07:32:50;;;;;;;18.77;11.45;;;;;;;;;;5031155;28;20033;-64
2023/04/20 07:35:16;;;;;;;17.63;11.75;;;;;;;;;;5031275;28;20025;-65
2023/04/20 07:37:42;;;;;;;23.23;13.93;;;;;;;;;;5031346;28;20025;-65
2023/04/20 07:40:09;;;;;;;21.08;12.60;;;;;;;;;;5030826;28;20057;-64
2023/04/20 07:42:36;;;;;;;18.75;11.90;;;;;;;;;;5013560;28;20025;-65
2023/04/20 07:45:02;;;;;;;18.30;11.55;;;;;;;;;;5030797;28;20093;-66
2023/04/20 07:47:28;;;;;;;19.02;11.95;;;;;;;;;;5032988;28;20040;-66
2023/04/20 07:49:56;;;;;;;21.88;12.50;;;;;;;;;;5035014;28;20053;-66
2023/04/20 07:52:23;;;;;;;20.45;11.98;;;;;;;;;;5035281;28;20025;-66
2023/04/20 07:54:49;;;;;;;20.27;13.10;;;;;;;;;;5034674;28;20033;-67
2023/04/20 07:57:15;;;;;;;21.23;12.27;;;;;;;;;;5035108;28;20401;-66
2023/04/20 07:59:41;;;;;;;18.88;12.13;;;;;;;;;;5017236;28;20505;-66
2023/04/20 08:02:07;;;;;;;18.13;11.35;;;;;;;;;;5034964;28;20147;-66
2023/04/20 08:04:35;;;;;;;20.17;11.52;;;;;;;;;;5035132;28;20107;-68
2023/04/20 08:07:01;;;;;;;20.60;13.10;;;;;;;;;;5017982;28;20051;-66
2023/04/20 08:09:28;;;;;;;20.20;11.65;;;;;;;;;;5017249;28;20030;-67
2023/04/20 08:11:55;;;;;;;19.70;12.50;;;;;;;;;;5035203;28;20048;-67
2023/04/20 08:14:21;;;;;;;20.10;12.65;;;;;;;;;;5034850;28;20021;-68
2023/04/20 08:16:47;;;;;;;22.40;11.63;;;;;;;;;;5034505;28;20045;-67
2023/04/20 08:19:13;;;;;;;19.75;12.75;;;;;;;;;;5034486;28;20029;-67
2023/04/20 08:21:39;;;;;;;25.13;14.57;;;;;;;;;;5034698;28;20379;-67
2023/04/20 08:24:06;;;;;;;20.27;12.68;;;;;;;;;;5028703;28;20501;-67
2023/04/20 08:26:32;;;;;;;20.30;12.57;;;;;;;;;;5026332;28;20021;-66
2023/04/20 08:28:59;;;;;;;22.08;12.55;;;;;;;;;;5034659;28;20048;-66
2023/04/20 08:31:25;;;;;;;19.52;12.13;;;;;;;;;;5033337;28;20410;-67
2023/04/20 08:33:51;;;;;;;19.83;11.70;;;;;;;;;;5031965;28;20033;-66
2023/04/20 08:36:17;;;;;;;21.20;12.52;;;;;;;;;;5029789;28;20030;-67
2023/04/20 08:38:44;;;;;;;22.83;13.45;;;;;;;;;;5017825;28;20026;-68
2023/04/20 08:41:12;;;;;;;21.38;12.07;;;;;;;;;;5016928;28;20104;-67
2023/04/20 08:43:38;;;;;;;19.95;12.27;;;;;;;;;;5019065;28;20494;-68
2023/04/20 08:46:04;;;;;;;19.90;12.65;;;;;;;;;;5034332;28;20057;-68
2023/04/20 08:48:41;;;;;;;20.90;13.10;;;;;;;;;;5019951;28;20731;-68
2023/04/20 08:51:07;;;;;;;19.60;12.90;;;;;;;;;;5033981;28;20466;-68
2023/04/20 08:53:33;;;;;;;21.30;13.30;;;;;;;;;;5021024;28;20017;-69
2023/04/20 08:55:59;;;;;;;19.95;13.00;;;;;;;;;;5033931;28;20473;-68
2023/04/20 08:58:29;;;;;;;19.88;12.77;;;;;;;;;;5032479;28;20021;-68
2023/04/20 09:00:56;;;;;;;18.42;12.68;;;;;;;;;;5033591;28;20026;-69
2023/04/20 09:03:35;;;;;;;20.02;13.38;;;;;;;;;;5032388;28;20104;-67
2023/04/20 09:06:01;;;;;;;18.35;13.07;;;;;;;;;;5032486;28;20021;-69
2023/04/20 09:08:37;;;;;;;20.40;13.07;;;;;;;;;;5033588;28;20064;-67
2023/04/20 09:11:04;;;;;;;20.88;13.57;;;;;;;;;;5032226;28;20033;-68
2023/04/20 09:13:30;;;;;;;18.73;12.85;;;;;;;;;;5033549;28;20025;-68
2023/04/20 09:15:56;;;;;;;23.17;13.75;;;;;;;;;;5033494;28;20029;-68
2023/04/20 09:18:23;;;;;;;19.02;13.50;;;;;;;;;;5033262;28;20087;-68
2023/04/20 09:20:50;;;;;;;20.98;13.07;;;;;;;;;;5033482;28;20029;-62
2023/04/20 09:23:17;;;;;;;20.92;13.43;;;;;;;;;;5033273;28;20029;-66
2023/04/20 09:25:45;;;;;;;20.25;13.57;;;;;;;;;;5016066;28;20490;-65
2023/04/20 09:28:12;;;;;;;23.30;13.47;;;;;;;;;;5033603;28;20045;-58
2023/04/20 09:30:49;;;;;;;20.08;13.40;;;;;;;;;;5015834;28;20057;-65
2023/04/20 09:33:15;;;;;;;21.58;13.65;;;;;;;;;;5033281;28;20026;-62
2023/04/20 09:35:42;;;;;;;17.92;12.98;;;;;;;;;;5033221;28;20044;-64
2023/04/20 09:38:08;;;;;;;19.33;13.05;;;;;;;;;;5033218;28;20072;-64
2023/04/20 09:40:35;;;;;;;21.05;13.48;;;;;;;;;;5032770;28;20040;-64
2023/04/20 09:43:08;;;;;;;21.25;14.07;;;;;;;;;;5032148;28;20025;-63
2023/04/20 09:45:35;;;;;;;19.60;13.82;;;;;;;;;;5032791;28;20429;-63
2023/04/20 09:48:04;;;;;;;22.77;14.15;;;;;;;;;;5032166;28;20604;-66
2023/04/20 09:50:31;;;;;;;20.35;13.95;;;;;;;;;;5015210;28;20152;-63
2023/04/20 09:52:57;;;;;;;19.23;14.05;;;;;;;;;;5032725;28;20035;-62
2023/04/20 09:55:25;;;;;;;20.60;14.13;;;;;;;;;;5014571;28;20030;-66
2023/04/20 09:57:52;;;;;;;21.52;13.90;;;;;;;;;;5032614;28;20021;-66
2023/04/20 10:00:18;;;;;;;20.27;13.65;;;;;;;;;;5032599;28;20037;-62
2023/04/20 10:02:46;;;;;;;22.80;14.18;;;;;;;;;;5032515;28;20716;-65
2023/04/20 10:05:13;;;;;;;;;;;;;;;;;;5032879;28;20037;-64
2023/04/20 10:07:39;;;;;;;18.83;13.10;;;;;;;;;;5032562;28;19908;-64
2023/04/20 10:10:15;;;;;;;18.88;12.95;;;;;;;;;;5032570;28;20030;-65
2023/04/20 10:12:51;;;;;;;20.23;13.85;;;;;;;;;;5032528;28;20026;-64
2023/04/20 10:15:17;;;;;;;20.48;14.02;;;;;;;;;;5032151;28;20036;-64
2023/04/20 10:17:43;;;;;;;20.42;13.13;;;;;;;;;;5014784;28;20033;-64
2023/04/20 10:20:22;;;;;;;20.00;13.15;;;;;;;;;;5032819;28;20025;-65
2023/04/20 10:22:49;;;;;;;19.92;13.88;;;;;;;;;;5033098;28;20097;-64
2023/04/20 10:25:18;;;;;;;20.63;13.93;;;;;;;;;;5032363;28;20529;-64
2023/04/20 10:27:57;;;;;;;20.70;13.43;;;;;;;;;;5032612;28;20399;-65
2023/04/20 10:30:24;;;;;;;19.60;13.30;;;;;;;;;;5031687;28;20104;-61
2023/04/20 10:32:50;;;;;;;18.75;13.63;;;;;;;;;;5032346;28;20106;-64
2023/04/20 10:35:16;;;;;;;20.38;14.18;;;;;;;;;;5032050;28;20025;-61
2023/04/20 10:37:49;;;;;;;20.40;13.85;;;;;;;;;;5032075;28;20273;-66
2023/04/20 10:40:16;;;;;;;25.20;16.13;;;;;;;;;;5031803;28;20112;-62
2023/04/20 10:42:45;;;;;;;20.85;13.75;;;;;;;;;;5031893;28;20021;-65
2023/04/20 10:45:12;;;;;;;18.92;13.52;;;;;;;;;;5031717;28;20096;-63
2023/04/20 10:47:39;;;;;;;19.80;14.32;;;;;;;;;;5013452;28;20025;-60
2023/04/20 10:50:13;;;;;;;20.33;13.48;;;;;;;;;;5013483;28;20025;-64
2023/04/20 10:52:40;;;;;;;20.33;13.55;;;;;;;;;;5031585;28;20037;-65
2023/04/20 10:55:07;;;;;;;18.67;13.45;;;;;;;;;;5031211;28;20026;-65
2023/04/20 10:57:33;;;;;;;22.50;13.55;;;;;;;;;;5033508;28;20060;-64
2023/04/20 10:59:59;;;;;;;17.75;13.38;;;;;;;;;;5033527;28;20037;-63
2023/04/20 11:02:26;;;;;;;19.65;13.70;;;;;;;;;;5032131;28;20393;-63
2023/04/20 11:04:54;;;;;;;19.38;13.70;;;;;;;;;;5032170;28;20018;-62
2023/04/20 11:07:20;;;;;;;18.80;13.40;;;;;;;;;;5032200;28;20024;-66
2023/04/20 11:09:53;;;;;;;19.85;13.27;;;;;;;;;;5032084;28;20097;-64
2023/04/20 11:12:19;;;;;;;17.98;12.88;;;;;;;;;;5010018;28;20033;-66
2023/04/20 11:14:52;;;;;;;18.38;13.38;;;;;;;;;;5026929;28;20033;-63
2023/04/20 11:17:18;;;;;;;18.20;13.43;;;;;;;;;;5030866;28;20075;-63
2023/04/20 11:19:45;;;;;;;22.08;13.98;;;;;;;;;;5013690;28;20478;-63
2023/04/20 11:22:20;;;;;;;19.90;13.15;;;;;;;;;;5030619;28;20501;-64
2023/04/20 11:24:46;;;;;;;19.73;13.88;;;;;;;;;;5031054;28;20490;-65
2023/04/20 11:27:20;;;;;;;19.63;13.82;;;;;;;;;;5031422;28;20093;-64
2023/04/20 11:29:56;;;;;;;19.70;14.20;;;;;;;;;;5023184;28;20022;-65
2023/04/20 11:32:22;;;;;;;18.55;13.32;;;;;;;;;;5031476;28;20055;-65
2023/04/20 11:34:57;;;;;;;19.13;13.35;;;;;;;;;;5031146;28;20044;-62
2023/04/20 11:37:23;;;;;;;17.30;13.45;;;;;;;;;;5030102;28;20069;-64
2023/04/20 11:39:59;;;;;;;18.55;13.32;;;;;;;;;;5030523;28;20057;-65
2023/04/20 11:42:25;;;;;;;19.05;13.90;;;;;;;;;;5031533;28;20030;-66
2023/04/20 11:44:51;;;;;;;20.55;13.70;;;;;;;;;;5030602;28;20030;-64
2023/04/20 11:47:17;;;;;;;18.85;13.48;;;;;;;;;;5029539;28;20022;-63
2023/04/20 11:49:43;;;;;;;20.92;13.63;;;;;;;;;;5029578;28;20385;-64
2023/04/20 11:52:10;;;;;;;17.83;13.63;;;;;;;;;;5030336;28;20057;-67
2023/04/20 11:54:36;;;;;;;17.52;13.75;;;;;;;;;;5039551;28;20021;-65
2023/04/20 11:57:02;;;;;;;17.65;13.60;;;;;;;;;;5033399;28;20075;-65
2023/04/20 11:59:28;;;;;;;18.63;13.48;;;;;;;;;;5051540;28;20036;-66
2023/04/20 12:01:54;;;;;;;17.63;13.32;;;;;;;;;;5051163;28;20036;-66
2023/04/20 12:04:20;;;;;;;18.52;13.20;;;;;;;;;;5050383;28;20028;-66
2023/04/20 12:06:46;;;;;;;18.23;12.85;;;;;;;;;;5031564;28;20029;-64
2023/04/20 12:09:12;;;;;;;17.85;13.77;;;;;;;;;;5031360;28;20028;-65
2023/04/20 12:11:38;;;;;;;18.35;13.90;;;;;;;;;;5031332;28;20359;-63
2023/04/20 12:14:04;;;;;;;18.67;14.05;;;;;;;;;;5013042;28;20040;-65
2023/04/20 12:16:30;;;;;;;18.30;13.50;;;;;;;;;;5031600;28;20456;-65
2023/04/20 12:18:56;;;;;;;19.33;14.30;;;;;;;;;;5030966;28;20022;-64
2023/04/20 12:21:22;;;;;;;18.50;13.60;;;;;;;;;;5012867;28;20022;-64
2023/04/20 12:23:49;;;;;;;17.02;13.25;;;;;;;;;;5030717;28;20053;-64
2023/04/20 12:26:16;;;;;;;18.88;13.70;;;;;;;;;;5028603;28;20075;-64
2023/04/20 12:28:43;;;;;;;19.85;14.10;;;;;;;;;;5029855;28;20482;-66
2023/04/20 12:31:10;;;;;;;17.42;12.73;;;;;;;;;;5029641;28;20025;-65
2023/04/20 12:33:36;;;;;;;17.98;14.25;;;;;;;;;;5031482;28;20049;-64
2023/04/20 12:36:02;;;;;;;16.95;12.77;;;;;;;;;;5033774;28;20060;-66
2023/04/20 12:38:28;;;;;;;18.05;12.98;;;;;;;;;;5030879;28;20028;-66
2023/04/20 12:40:54;;;;;;;18.35;12.80;;;;;;;;;;5033608;28;20033;-62
2023/04/20 12:43:20;;;;;;;17.25;12.20;;;;;;;;;;5033135;28;20017;-65
2023/04/20 12:45:47;;;;;;;20.95;13.65;;;;;;;;;;5015633;28;20083;-63
2023/04/20 12:48:13;;;;;;;18.55;13.60;;;;;;;;;;5033378;28;20025;-64
2023/04/20 12:50:39;;;;;;;18.05;13.48;;;;;;;;;;5033614;28;20052;-66
2023/04/20 12:53:05;;;;;;;19.83;13.35;;;;;;;;;;5029141;28;20036;-66
2023/04/20 12:55:31;;;;;;;20.48;12.85;;;;;;;;;;5033127;28;20053;-66
2023/04/20 12:57:57;;;;;;;20.05;13.15;;;;;;;;;;5033229;28;20497;-63
2023/04/20 13:00:23;;;;;;;17.38;13.27;;;;;;;;;;5032791;28;20017;-65
2023/04/20 13:02:49;;;;;;;17.98;13.98;;;;;;;;;;5033047;28;20067;-64
2023/04/20 13:05:16;;;;;;;18.55;14.05;;;;;;;;;;5014612;28;20025;-62
2023/04/20 13:07:42;;;;;;;17.13;13.25;;;;;;;;;;5032943;28;20016;-64
2023/04/20 13:10:08;;;;;;;17.55;13.18;;;;;;;;;;5014646;28;20021;-63
2023/04/20 13:12:34;;;;;;;18.25;13.55;;;;;;;;;;5015309;28;20060;-69
2023/04/20 13:15:00;;;;;;;19.40;13.43;;;;;;;;;;5031363;28;20021;-64
2023/04/20 13:17:26;;;;;;;17.77;12.93;;;;;;;;;;5032807;28;20474;-62
2023/04/20 13:19:52;;;;;;;17.48;13.65;;;;;;;;;;5032868;28;20021;-61
2023/04/20 13:22:18;;;;;;;20.08;14.20;;;;;;;;;;5032476;28;20435;-63
2023/04/20 13:24:44;;;;;;;24.30;14.10;;;;;;;;;;5014047;28;20412;-63
2023/04/20 13:27:11;;;;;;;17.13;13.02;;;;;;;;;;5032378;28;20021;-64
2023/04/20 13:29:38;;;;;;;18.63;13.73;;;;;;;;;;5032455;28;20029;-62
2023/04/20 13:32:04;;;;;;;18.65;13.85;;;;;;;;;;5029764;28;20025;-63
2023/04/20 13:34:30;;;;;;;17.52;13.25;;;;;;;;;;5032086;28;20026;-66
2023/04/20 13:36:57;;;;;;;19.20;13.82;;;;;;;;;;5032256;28;20041;-66
2023/04/20 13:39:23;;;;;;;18.20;13.75;;;;;;;;;;5029183;28;20025;-66
2023/04/20 13:41:49;;;;;;;18.10;14.25;;;;;;;;;;5013679;28;20576;-65
2023/04/20 13:44:16;;;;;;;19.38;14.30;;;;;;;;;;5031627;28;20049;-64
2023/04/20 13:46:43;;;;;;;18.48;14.23;;;;;;;;;;5032412;28;20021;-66
2023/04/20 13:49:09;;;;;;;18.45;14.20;;;;;;;;;;5014656;28;20085;-65
2023/04/20 13:51:35;;;;;;;17.75;13.18;;;;;;;;;;5032983;28;20021;-63
2023/04/20 13:54:01;;;;;;;22.50;14.23;;;;;;;;;;5034918;28;20033;-66
2023/04/20 13:56:27;;;;;;;20.60;14.57;;;;;;;;;;5035126;28;20039;-66
2023/04/20 13:58:53;;;;;;;18.17;14.93;;;;;;;;;;5032690;28;20423;-65
2023/04/20 14:01:19;;;;;;;17.58;14.13;;;;;;;;;;5032177;28;20041;-64
2023/04/20 14:03:45;;;;;;;19.50;14.73;;;;;;;;;;5014459;28;20090;-65
2023/04/20 14:06:11;;;;;;;18.05;14.40;;;;;;;;;;5032041;28;20018;-67
2023/04/20 14:08:37;;;;;;;19.27;15.05;;;;;;;;;;5032132;28;20055;-63
2023/04/20 14:11:03;;;;;;;17.63;14.52;;;;;;;;;;5032223;28;20025;-66
2023/04/20 14:13:29;;;;;;;18.08;14.60;;;;;;;;;;5014238;28;20064;-66
2023/04/20 14:15:55;;;;;;;18.05;14.52;;;;;;;;;;5031596;28;20446;-66